METAR & TAF

RJAA 241330Z 15003KT CAVOK 19/18 Q1015 NOSIG RMK A2999
RJAA 241300Z 14003KT CAVOK 19/18 Q1015 NOSIG RMK A2999
RJAA 241230Z 15003KT 120V180 CAVOK 19/18 Q1015 NOSIG RMK A2999
RJAA 241200Z 12003KT CAVOK 20/18 Q1016 NOSIG RMK A3000
RJAA 241130Z 13003KT 9999 FEW045 BKN060 20/18 Q1016 NOSIG RMK 1SC045 7SC060 A3001
RJAA 241100Z VRB02KT 9999 SCT045 BKN060 20/18 Q1016 NOSIG RMK 3SC045 7SC060 A3001
RJAA 241030Z 15004KT 9999 SCT045 BKN060 BKN/// 20/18 Q1016 NOSIG RMK 4SC045 6SC060 A3001
RJAA 241000Z 17003KT 9999 FEW045 BKN050 21/18 Q1015 NOSIG RMK 1SC045 7SC050 A3000
RJAA 240930Z 15003KT CAVOK 21/18 Q1015 NOSIG RMK 7SC050 A2999
RJAA 240900Z 15004KT CAVOK 21/19 Q1015 NOSIG RMK 7SC050 A2999

TAF RJAA 241105Z 2412/2518 07004KT 9999 FEW020 BKN040
  BECMG 2500/2503 13010KT
  BECMG 2515/2518 05005KT